^^
Station Historical Data
Daily Summary for May 12, 2017 Units:  Metric    English   Both
« Previous Day
Next Day »
Daily Weekly Monthly Yearly Custom
  High: Low: Average:
Temperature: 25.8 °C 9.1 °C 18.5 °C
Dew Point: 6.6 °C -5 °C 2.3 °C
Humidity: 79% 14% 40%
Wind Speed: 25.9km/h 0km/h 3.9km/h
Wind Gust: 29km/h - -
Wind- - SSE
Pressure: 1021.6 hPa 1017.8 hPa -
Precipitation: 0 mm    
Historical Graphs
 
 
Tabular Data for May 12, 2017
Time Temperature Dew Point Pressure Wind Wind Speed Wind Gust Humidity Rainfall Rate (Hourly) solar Conditions
01:40 13.5 °C 5.9 °C 1018.8 hPa South 9.7 km/h 12.9 km/h 60% 0 mm 0.0 W/m2
01:45 13.4 °C 6 °C 1018.8 hPa South 7.9 km/h 9.7 km/h 61% 0 mm 0.0 W/m2
01:51 13.3 °C 5.9 °C 1018.8 hPa South 9.7 km/h 11.3 km/h 61% 0 mm 0.0 W/m2
01:56 13.2 °C 5.8 °C 1018.8 hPa South 6.4 km/h 9.7 km/h 61% 0 mm 0.0 W/m2
02:01 12.9 °C 5.8 °C 1018.8 hPa South 9.7 km/h 11.3 km/h 62% 0 mm 0.0 W/m2
02:11 12.8 °C 6.2 °C 1018.8 hPa South 11.1 km/h 12.9 km/h 64% 0 mm 0.0 W/m2
02:20 12.6 °C 6.2 °C 1018.8 hPa South 7.9 km/h 11.3 km/h 65% 0 mm 0.0 W/m2
02:26 12.4 °C 6.2 °C 1018.8 hPa South 7.9 km/h 9.7 km/h 66% 0 mm 0.0 W/m2
02:35 12.2 °C 6 °C 1018.8 hPa South 4.7 km/h 6.4 km/h 66% 0 mm 0.0 W/m2
02:46 11.7 °C 6 °C 1018.8 hPa South 6.4 km/h 6.4 km/h 68% 0 mm 0.0 W/m2
03:06 11.4 °C 5.9 °C 1018.8 hPa Calm     69% 0 mm 0.0 W/m2
03:11 11.3 °C 5.8 °C 1018.8 hPa Calm     69% 0 mm 0.0 W/m2
03:16 11 °C 5.7 °C 1018.5 hPa Calm     70% 0 mm 0.0 W/m2
03:21 10.8 °C 5.8 °C 1018.8 hPa South 7.9 km/h 8 km/h 71% 0 mm 0.0 W/m2
03:27 10.7 °C 5.9 °C 1018.5 hPa South 9.7 km/h 11.3 km/h 72% 0 mm 0.0 W/m2
03:36 10.9 °C 6.1 °C 1018.5 hPa South 7.9 km/h 8 km/h 72% 0 mm 0.0 W/m2
03:41 10.9 °C 6.1 °C 1018.8 hPa South 7.9 km/h 9.7 km/h 72% 0 mm 0.0 W/m2
03:46 10.9 °C 6.1 °C 1018.8 hPa South 4.7 km/h 8 km/h 72% 0 mm 0.0 W/m2
03:51 10.9 °C 5.8 °C 1018.8 hPa South 6.4 km/h 8 km/h 71% 0 mm 0.0 W/m2
03:56 10.7 °C 5.7 °C 1018.8 hPa South 6.4 km/h 9.7 km/h 71% 0 mm 0.0 W/m2
04:02 10.7 °C 5.7 °C 1018.8 hPa Calm     71% 0 mm 0.0 W/m2
04:12 10.4 °C 5.8 °C 1018.8 hPa Calm     73% 0 mm 0.0 W/m2
04:17 10.4 °C 6 °C 1018.8 hPa Calm     74% 0 mm 0.0 W/m2
04:22 10.5 °C 6.1 °C 1018.8 hPa Calm     74% 0 mm 0.0 W/m2
04:27 10.4 °C 6 °C 1018.8 hPa Calm     74% 0 mm 0.0 W/m2
04:32 10.4 °C 5.8 °C 1018.8 hPa Calm     73% 0 mm 0.0 W/m2
04:42 10.6 °C 5.6 °C 1018.8 hPa Calm     71% 0 mm 0.0 W/m2
04:48 10.5 °C 5.7 °C 1019.2 hPa Calm     72% 0 mm 0.0 W/m2
04:58 10.1 °C 5.5 °C 1019.2 hPa Calm     73% 0 mm 0.0 W/m2
05:08 9.7 °C 5.5 °C 1019.2 hPa Calm     75% 0 mm 0.0 W/m2
05:13 9.6 °C 5.4 °C 1019.2 hPa Calm     75% 0 mm 0.0 W/m2
05:19 9.4 °C 5.2 °C 1019.2 hPa Calm     75% 0 mm 0.0 W/m2
05:24 9.3 °C 5.3 °C 1019.5 hPa Calm     76% 0 mm 0.0 W/m2
05:30 9.2 °C 5.4 °C 1019.5 hPa Calm     77% 0 mm 0.0 W/m2
05:34 9.1 °C 5.5 °C 1019.5 hPa Calm     78% 0 mm 0.0 W/m2
05:43 9.3 °C 5.8 °C 1019.5 hPa Calm     79% 0 mm 0.0 W/m2
05:52 9.3 °C 5.7 °C 1019.5 hPa Calm     78% 0 mm 0.0 W/m2
06:51 9.4 °C 5.6 °C 1020.2 hPa Calm     77% 0 mm 14.0 W/m2
07:01 10.8 °C 6.4 °C 1020.5 hPa Calm   6.4 km/h 74% 0 mm 54.0 W/m2
07:16 11.2 °C 6.3 °C 1020.9 hPa South 1.4 km/h 6.4 km/h 72% 0 mm 105.0 W/m2
07:29 11.6 °C 6.3 °C 1020.9 hPa Calm     70% 0 mm 169.0 W/m2
07:41 12.1 °C 6.4 °C 1020.9 hPa Calm     68% 0 mm 209.0 W/m2
07:52 12.8 °C 6.6 °C 1021.2 hPa Calm     66% 0 mm 264.0 W/m2
08:02 13.5 °C 6.4 °C 1021.2 hPa Calm     62% 0 mm 295.0 W/m2
08:22 14.5 °C 5.8 °C 1021.2 hPa Calm     56% 0 mm 345.0 W/m2
08:30 15.2 °C 5.1 °C 1021.2 hPa Calm     51% 0 mm 371.0 W/m2
08:35 15.5 °C 5.1 °C 1021.6 hPa Calm     50% 0 mm 383.0 W/m2
10:00 20.5 °C 3.2 °C 1021.2 hPa Calm     32% 0 mm 584.0 W/m2
10:05 20.8 °C 3.5 °C 1021.2 hPa Calm     32% 0 mm 596.0 W/m2
10:10 21 °C 3.2 °C 1021.2 hPa Calm     31% 0 mm 601.0 W/m2
10:15 21 °C 3.2 °C 1021.2 hPa Calm     31% 0 mm 608.0 W/m2
10:20 21.2 °C 3.8 °C 1021.2 hPa Calm     32% 0 mm 617.0 W/m2
10:25 21.4 °C 3.1 °C 1021.2 hPa Calm     30% 0 mm 622.0 W/m2
10:30 21.4 °C 2.6 °C 1021.2 hPa Calm     29% 0 mm 631.0 W/m2
10:35 21.5 °C 2.7 °C 1021.2 hPa Calm     29% 0 mm 636.0 W/m2
10:46 21.7 °C 3.4 °C 1021.2 hPa Calm     30% 0 mm 649.0 W/m2
11:01 21.8 °C 3 °C 1020.9 hPa Calm     29% 0 mm 661.0 W/m2
11:11 21.9 °C 2.6 °C 1020.9 hPa Calm     28% 0 mm 664.0 W/m2
11:17 22.1 °C 2.2 °C 1020.5 hPa Calm   4.8 km/h 27% 0 mm 670.0 W/m2
11:22 22.3 °C 1.9 °C 1020.5 hPa Calm     26% 0 mm 675.0 W/m2
11:27 22.6 °C 2.1 °C 1020.5 hPa Calm     26% 0 mm 677.0 W/m2
11:32 22.7 °C 2.2 °C 1020.5 hPa Calm     26% 0 mm 680.0 W/m2
11:37 23.1 °C 2 °C 1020.5 hPa Calm     25% 0 mm 682.0 W/m2
11:42 23.4 °C 2.2 °C 1020.2 hPa Calm     25% 0 mm 682.0 W/m2
11:48 23.7 °C 2.5 °C 1020.2 hPa Calm     25% 0 mm 684.0 W/m2
11:53 23.7 °C 1.9 °C 1020.2 hPa Calm     24% 0 mm 682.0 W/m2
11:58 23.6 °C 1.8 °C 1020.2 hPa Calm     24% 0 mm 680.0 W/m2
12:03 23.3 °C 1.6 °C 1019.9 hPa Calm     24% 0 mm 675.0 W/m2
12:08 23.1 °C 1.4 °C 1019.9 hPa Calm     24% 0 mm 673.0 W/m2
12:13 23 °C 1.9 °C 1019.9 hPa Calm     25% 0 mm 673.0 W/m2
12:18 23.4 °C 1.7 °C 1019.9 hPa Calm     24% 0 mm 670.0 W/m2
12:23 23.8 °C 2 °C 1019.9 hPa Calm     24% 0 mm 670.0 W/m2
12:28 24.1 °C 1.7 °C 1019.5 hPa Calm     23% 0 mm 668.0 W/m2
12:34 24.1 °C 1.1 °C 1019.5 hPa Calm     22% 0 mm 659.0 W/m2
12:39 24.2 °C 1.1 °C 1019.5 hPa Calm     22% 0 mm 657.0 W/m2
12:44 24.2 °C 1.1 °C 1019.5 hPa Calm     22% 0 mm 654.0 W/m2
12:49 24.3 °C 1.2 °C 1019.2 hPa Calm     22% 0 mm 645.0 W/m2
12:54 24.3 °C 0.6 °C 1019.2 hPa Calm     21% 0 mm 642.0 W/m2
13:00 24.3 °C 0.6 °C 1019.2 hPa Calm     21% 0 mm 633.0 W/m2
13:05 24.2 °C 0.5 °C 1019.2 hPa Calm     21% 0 mm 626.0 W/m2
13:10 24.3 °C 0.6 °C 1019.2 hPa Calm     21% 0 mm 619.0 W/m2
13:15 24.2 °C 0.5 °C 1019.2 hPa Calm     21% 0 mm 612.0 W/m2
13:20 24.2 °C 0.5 °C 1018.8 hPa Calm     21% 0 mm 603.0 W/m2
13:25 24.6 °C 0.1 °C 1018.8 hPa Calm     20% 0 mm 598.0 W/m2
13:30 25.1 °C 0.6 °C 1018.8 hPa Calm     20% 0 mm 587.0 W/m2
13:36 24.8 °C -0.4 °C 1018.8 hPa Calm     19% 0 mm 577.0 W/m2
13:42 24.9 °C 0.4 °C 1018.8 hPa Calm     20% 0 mm 570.0 W/m2
13:46 25.1 °C -0.1 °C 1018.8 hPa Calm     19% 0 mm 559.0 W/m2
13:56 25.4 °C 0.1 °C 1018.8 hPa Calm     19% 0 mm 536.0 W/m2
14:15 25.3 °C 0 °C 1018.5 hPa Calm     19% 0 mm 506.0 W/m2
14:26 25.8 °C 0.4 °C 1018.5 hPa Calm   9.7 km/h 19% 0 mm 480.0 W/m2
14:42 25.4 °C 0.1 °C 1018.5 hPa South 3.2 km/h 9.7 km/h 19% 0 mm 439.0 W/m2
14:57 25.6 °C 0.3 °C 1018.2 hPa South 4.7 km/h 4.8 km/h 19% 0 mm 397.0 W/m2
15:06 25.7 °C 0.3 °C 1018.2 hPa Calm     19% 0 mm 371.0 W/m2
15:16 25.7 °C -0.4 °C 1018.2 hPa South 3.2 km/h 9.7 km/h 18% 0 mm 341.0 W/m2
15:25 25.6 °C -0.5 °C 1018.2 hPa Calm     18% 0 mm 308.0 W/m2
15:35 25.7 °C -0.4 °C 1017.8 hPa Calm     18% 0 mm 279.0 W/m2
15:46 25.6 °C -1.3 °C 1017.8 hPa Calm     17% 0 mm 244.0 W/m2
15:57 25.6 °C -1.3 °C 1017.8 hPa Calm     17% 0 mm 206.0 W/m2
16:06 25.5 °C -1.3 °C 1017.8 hPa Calm     17% 0 mm 160.0 W/m2
16:11 25.4 °C -2.3 °C 1017.8 hPa Calm     16% 0 mm 142.0 W/m2
16:20 25.5 °C -2.2 °C 1018.2 hPa Calm     16% 0 mm 104.0 W/m2
16:30 25.4 °C -2.3 °C 1018.2 hPa Calm     16% 0 mm 69.0 W/m2
16:36 25.4 °C -2.3 °C 1018.2 hPa Calm     16% 0 mm 53.0 W/m2
16:39 25.2 °C -2.4 °C 1018.2 hPa Calm     16% 0 mm 39.0 W/m2
16:54 24.9 °C -1.8 °C 1018.2 hPa Calm     17% 0 mm 16.0 W/m2
17:04 24.6 °C -2.9 °C 1018.2 hPa Calm     16% 0 mm 9.0 W/m2
17:14 24.2 °C -5 °C 1018.2 hPa Calm     14% 0 mm 0.0 W/m2
17:25 23.7 °C -4.5 °C 1018.5 hPa Calm     15% 0 mm 0.0 W/m2
17:34 23.1 °C -4.1 °C 1018.2 hPa Calm     16% 0 mm 0.0 W/m2
17:42 22.6 °C -4.5 °C 1018.2 hPa South 1.4 km/h 6.4 km/h 16% 0 mm 0.0 W/m2
20:09 19.8 °C -1.4 °C 1019.2 hPa SE 24.1 km/h 25.7 km/h 24% 0 mm 0.0 W/m2
20:15 19.7 °C -1.4 °C 1019.2 hPa SE 13 km/h 20.9 km/h 24% 0 mm 0.0 W/m2
20:25 19.4 °C -1.1 °C 1019.2 hPa SE 19.5 km/h 25.7 km/h 25% 0 mm 0.0 W/m2
20:35 19.3 °C -1.2 °C 1019.2 hPa ESE 16.3 km/h 24.1 km/h 25% 0 mm 0.0 W/m2
20:43 19.1 °C -0.9 °C 1019.5 hPa ESE 17.7 km/h 24.1 km/h 26% 0 mm 0.0 W/m2
20:52 18.8 °C -0.6 °C 1019.5 hPa ESE 11.1 km/h 17.7 km/h 27% 0 mm 0.0 W/m2
20:56 18.8 °C -0.1 °C 1019.5 hPa ESE 24.1 km/h 29 km/h 28% 0 mm 0.0 W/m2
21:02 18.8 °C -0.1 °C 1019.5 hPa ESE 14.3 km/h 20.9 km/h 28% 0 mm 0.0 W/m2
21:07 18.7 °C -0.2 °C 1019.5 hPa ESE 16.3 km/h 24.1 km/h 28% 0 mm 0.0 W/m2
21:12 18.7 °C -0.2 °C 1019.5 hPa ESE 16.3 km/h 25.7 km/h 28% 0 mm 0.0 W/m2
21:17 18.6 °C -0.3 °C 1019.2 hPa ESE 22.7 km/h 27.4 km/h 28% 0 mm 0.0 W/m2
21:27 18.5 °C 0.1 °C 1019.5 hPa ESE 16.3 km/h 20.9 km/h 29% 0 mm 0.0 W/m2
21:33 18.4 °C 0.5 °C 1019.5 hPa ESE 11.1 km/h 24.1 km/h 30% 0 mm 0.0 W/m2
21:38 18.3 °C 0.4 °C 1019.5 hPa ESE 17.7 km/h 24.1 km/h 30% 0 mm 0.0 W/m2
21:48 18.2 °C 0.3 °C 1019.5 hPa ESE 14.3 km/h 24.1 km/h 30% 0 mm 0.0 W/m2
22:37 17.8 °C 1.3 °C 1019.5 hPa ESE 16.3 km/h 25.7 km/h 33% 0 mm 0.0 W/m2
22:42 17.7 °C 1.2 °C 1019.5 hPa ESE 20.9 km/h 27.4 km/h 33% 0 mm 0.0 W/m2
22:47 17.8 °C 1.3 °C 1019.5 hPa ESE 17.7 km/h 24.1 km/h 33% 0 mm 0.0 W/m2
22:52 17.7 °C 1.2 °C 1019.5 hPa ESE 25.9 km/h 25.9 km/h 33% 0 mm 0.0 W/m2
22:57 17.7 °C 1.2 °C 1019.5 hPa ESE 16.3 km/h 20.9 km/h 33% 0 mm 0.0 W/m2
23:12 17.5 °C 1 °C 1019.5 hPa ESE 13 km/h 19.3 km/h 33% 0 mm 0.0 W/m2
23:28 17.3 °C 0.9 °C 1019.5 hPa ESE 6.4 km/h 12.9 km/h 33% 0 mm 0.0 W/m2
23:33 17.3 °C 0.9 °C 1019.5 hPa ESE 4.7 km/h 9.7 km/h 33% 0 mm 0.0 W/m2
23:38 17.1 °C 0.3 °C 1019.5 hPa Calm     32% 0 mm 0.0 W/m2
23:44 16.8 °C 0.4 °C 1019.5 hPa Calm     33% 0 mm 0.0 W/m2
23:49 16.7 °C 0.3 °C 1019.5 hPa Calm     33% 0 mm 0.0 W/m2
23:54 16.5 °C 0.2 °C 1019.5 hPa Calm     33% 0 mm 0.0 W/m2
Canyon Roadhouse, Fishriver Canyon, Namibia
Compliments of Weather Underground - 2.25 mb